Time;durP1;ratioP1;P1;durP2;ratioP2;P2;SDS_P1;SDS_P2;PMS_P1;PMS_P2;Temp;Humidity;BMP_temperature;BMP_pressure;BME280_temperature;BME280_humidity;BME280_pressure;Samples;Min_cycle;Max_cycle;Signal;HPM_P1;HPM_P2
2024/03/28 00:00:18;;;;;;;;;;;21.60;40.50;;;;;;3029644;19;4751;-32
2024/03/28 00:01:18;;;;;;;;;;;21.60;40.50;;;;;;3050177;19;4747;-31
2024/03/28 00:02:19;;;;;;;;;;;21.60;40.50;;;;;;3051262;19;4724;-34
2024/03/28 00:03:20;;;;;;;;;;;21.60;40.50;;;;;;3028210;19;4600;-30
2024/03/28 00:04:20;;;;;;;;;;;21.60;40.60;;;;;;3051341;19;4725;-31
2024/03/28 00:05:21;;;;;;;;;;;21.50;40.50;;;;;;3028795;19;4716;-33
2024/03/28 00:06:22;;;;;;;;;;;21.50;41.20;;;;;;3050449;19;4687;-34
2024/03/28 00:07:22;;;;;;;;;;;21.50;40.50;;;;;;3050281;19;4856;-33
2024/03/28 00:08:27;;;;;;;;;;;21.50;40.60;;;;;;3029475;19;4634;-32
2024/03/28 00:09:28;;;;;;;;;;;21.50;40.60;;;;;;3050148;19;4649;-32
2024/03/28 00:10:29;;;;;;;;;;;21.50;40.70;;;;;;3051216;19;4683;-31
2024/03/28 00:11:29;;;;;;;;;;;21.50;40.60;;;;;;3027733;19;4686;-33
2024/03/28 00:12:30;;;;;;;;;;;21.50;40.60;;;;;;3050021;19;4709;-30
2024/03/28 00:13:31;;;;;;;;;;;21.50;40.60;;;;;;3031539;19;4711;-33
2024/03/28 00:14:32;;;;;;;;;;;21.40;40.60;;;;;;3050402;19;4695;-32
2024/03/28 00:15:32;;;;;;;;;;;21.50;40.80;;;;;;3051356;19;4710;-34
2024/03/28 00:16:33;;;;;;;;;;;21.50;40.70;;;;;;3028946;19;4720;-34
2024/03/28 00:17:33;;;;;;;;;;;21.50;40.70;;;;;;3052656;19;4654;-36
2024/03/28 00:18:35;;;;;;;;;;;21.40;40.60;;;;;;3029081;19;4674;-32
2024/03/28 00:19:36;;;;;;;;;;;21.50;40.70;;;;;;3050944;19;4859;-31
2024/03/28 00:20:36;;;;;;;;;;;21.40;40.60;;;;;;3049786;19;4732;-30
2024/03/28 00:21:37;;;;;;;;;;;21.40;40.60;;;;;;3029456;19;4663;-31
2024/03/28 00:22:37;;;;;;;;;;;21.40;40.60;;;;;;3049294;19;4827;-31
2024/03/28 00:23:38;;;;;;;;;;;21.40;40.60;;;;;;3050348;19;4811;-30
2024/03/28 00:24:42;;;;;;;;;;;21.40;40.60;;;;;;3029810;19;4585;-31
2024/03/28 00:25:42;;;;;;;;;;;21.40;40.70;;;;;;3049419;19;4764;-33
2024/03/28 00:26:43;;;;;;;;;;;21.40;40.70;;;;;;3028547;19;4714;-33
2024/03/28 00:27:44;;;;;;;;;;;21.40;40.70;;;;;;3051465;19;4885;-35
2024/03/28 00:28:44;;;;;;;;;;;21.40;40.60;;;;;;3050101;19;4719;-34
2024/03/28 00:29:45;;;;;;;;;;;21.30;40.60;;;;;;3027355;19;4716;-31
2024/03/28 00:30:46;;;;;;;;;;;21.40;40.60;;;;;;3050026;19;4718;-30
2024/03/28 00:31:47;;;;;;;;;;;21.40;40.70;;;;;;3051598;19;4673;-32
2024/03/28 00:32:48;;;;;;;;;;;21.40;40.70;;;;;;3028558;19;4611;-34
2024/03/28 00:33:48;;;;;;;;;;;21.40;40.70;;;;;;3049881;19;5387;-32
2024/03/28 00:34:49;;;;;;;;;;;21.30;40.60;;;;;;3031112;19;4904;-33
2024/03/28 00:35:50;;;;;;;;;;;21.30;40.60;;;;;;3051963;19;4685;-33
2024/03/28 00:36:51;;;;;;;;;;;21.30;40.60;;;;;;3048395;19;4706;-30
2024/03/28 00:37:52;;;;;;;;;;;21.30;41.30;;;;;;3027960;19;4718;-33
2024/03/28 00:38:52;;;;;;;;;;;21.30;40.60;;;;;;3049573;19;4720;-33
2024/03/28 00:39:53;;;;;;;;;;;21.30;40.60;;;;;;3033419;19;4718;-33
2024/03/28 00:40:54;;;;;;;;;;;21.30;40.60;;;;;;3050368;19;4693;-33
2024/03/28 00:41:54;;;;;;;;;;;21.30;40.70;;;;;;3051491;19;4759;-30
2024/03/28 00:42:55;;;;;;;;;;;21.30;40.70;;;;;;3029667;19;4668;-32
2024/03/28 00:43:56;;;;;;;;;;;21.30;40.60;;;;;;3050076;19;4635;-33
2024/03/28 00:44:56;;;;;;;;;;;21.30;40.70;;;;;;3052158;19;4692;-32
2024/03/28 00:46:00;;;;;;;;;;;21.30;40.70;;;;;;3029478;19;4649;-33
2024/03/28 00:47:00;;;;;;;;;;;21.30;40.80;;;;;;3051211;19;4818;-32
2024/03/28 00:48:01;;;;;;;;;;;21.30;40.70;;;;;;3028695;19;4672;-32
2024/03/28 00:49:02;;;;;;;;;;;21.30;40.70;;;;;;3052028;19;4707;-32
2024/03/28 00:50:02;;;;;;;;;;;21.20;40.60;;;;;;3049804;19;4655;-30
2024/03/28 00:51:03;;;;;;;;;;;21.30;40.70;;;;;;3030444;19;4666;-32
2024/03/28 00:52:04;;;;;;;;;;;21.30;40.70;;;;;;3049293;19;4769;-38
2024/03/28 00:53:04;;;;;;;;;;;21.20;40.70;;;;;;3051398;19;4657;-32
2024/03/28 00:54:05;;;;;;;;;;;21.20;40.70;;;;;;3026858;19;4661;-34
2024/03/28 00:55:06;;;;;;;;;;;21.30;40.80;;;;;;3051068;19;4716;-34
2024/03/28 00:56:06;;;;;;;;;;;21.20;40.80;;;;;;3029881;19;13422;-33
2024/03/28 00:57:07;;;;;;;;;;;21.20;40.80;;;;;;3050530;19;4689;-25
2024/03/28 00:58:07;;;;;;;;;;;21.20;40.70;;;;;;3049465;19;4736;-25
2024/03/28 00:59:08;;;;;;;;;;;21.20;40.70;;;;;;3027300;19;4622;-25
2024/03/28 01:00:09;;;;;;;;;;;21.20;40.70;;;;;;3051178;19;4696;-26
2024/03/28 01:01:10;;;;;;;;;;;21.20;40.70;;;;;;3049884;19;4701;-25
2024/03/28 01:02:11;;;;;;;;;;;21.20;40.80;;;;;;3030169;19;4755;-26
2024/03/28 01:03:11;;;;;;;;;;;21.10;40.70;;;;;;3049228;19;4902;-26
2024/03/28 01:04:14;;;;;;;;;;;21.20;40.80;;;;;;3029008;19;4279;-26
2024/03/28 01:05:15;;;;;;;;;;;21.20;40.80;;;;;;3047605;19;4663;-24
2024/03/28 01:06:16;;;;;;;;;;;21.20;40.80;;;;;;3050526;19;4761;-25
2024/03/28 01:07:16;;;;;;;;;;;21.10;40.80;;;;;;3028214;19;4609;-27
2024/03/28 01:08:17;;;;;;;;;;;21.20;40.80;;;;;;3050071;19;4685;-26
2024/03/28 01:09:17;;;;;;;;;;;21.20;40.80;;;;;;3029238;19;4626;-27
2024/03/28 01:10:18;;;;;;;;;;;21.10;40.80;;;;;;3050820;19;4715;-26
2024/03/28 01:11:19;;;;;;;;;;;21.10;40.80;;;;;;3049295;19;4778;-26
2024/03/28 01:12:20;;;;;;;;;;;21.10;40.80;;;;;;3030426;19;4717;-25
2024/03/28 01:13:20;;;;;;;;;;;21.10;40.80;;;;;;3049054;19;4666;-26
2024/03/28 01:14:21;;;;;;;;;;;21.10;40.80;;;;;;3052602;19;4718;-25
2024/03/28 01:15:21;;;;;;;;;;;21.10;40.90;;;;;;3027930;19;4867;-26
2024/03/28 01:16:22;;;;;;;;;;;21.10;40.80;;;;;;3049388;19;4687;-26
2024/03/28 01:17:23;;;;;;;;;;;21.10;40.80;;;;;;3027976;19;4717;-24
2024/03/28 01:18:24;;;;;;;;;;;21.10;40.80;;;;;;3048869;19;4684;-29
2024/03/28 01:19:24;;;;;;;;;;;21.10;40.80;;;;;;3051254;19;4675;-25
2024/03/28 01:20:25;;;;;;;;;;;21.10;40.80;;;;;;3027431;19;4683;-26
2024/03/28 01:21:25;;;;;;;;;;;21.10;40.80;;;;;;3051625;19;4676;-26
2024/03/28 01:22:26;;;;;;;;;;;21.10;40.80;;;;;;3049547;19;4745;-23
2024/03/28 01:23:27;;;;;;;;;;;21.10;40.80;;;;;;3028038;19;4885;-24
2024/03/28 01:24:28;;;;;;;;;;;21.10;40.80;;;;;;3049421;19;4703;-26
2024/03/28 01:25:29;;;;;;;;;;;21.10;40.80;;;;;;3028609;19;4908;-27
2024/03/28 01:26:30;;;;;;;;;;;21.10;40.80;;;;;;3049335;19;4885;-26
2024/03/28 01:27:30;;;;;;;;;;;21.10;40.80;;;;;;3049114;19;4695;-26
2024/03/28 01:28:31;;;;;;;;;;;21.10;40.80;;;;;;3029710;19;4673;-28
2024/03/28 01:29:32;;;;;;;;;;;21.00;40.80;;;;;;3050279;19;4786;-26
2024/03/28 01:30:33;;;;;;;;;;;21.00;40.80;;;;;;3032294;19;4743;-28
2024/03/28 01:31:33;;;;;;;;;;;21.00;40.80;;;;;;3048678;19;4767;-26
2024/03/28 01:32:34;;;;;;;;;;;21.00;40.80;;;;;;3049652;19;4710;-28
2024/03/28 01:33:35;;;;;;;;;;;21.00;40.80;;;;;;3026634;19;4676;-25
2024/03/28 01:34:36;;;;;;;;;;;21.00;40.80;;;;;;3049311;19;4757;-25
2024/03/28 01:35:36;;;;;;;;;;;21.00;40.80;;;;;;3048968;19;4732;-28
2024/03/28 01:36:37;;;;;;;;;;;21.00;40.80;;;;;;3030151;19;4528;-26
2024/03/28 01:37:37;;;;;;;;;;;21.00;40.90;;;;;;3050001;19;4696;-26
2024/03/28 01:38:38;;;;;;;;;;;21.00;40.80;;;;;;3028439;19;4676;-27
2024/03/28 01:39:39;;;;;;;;;;;21.20;40.90;;;;;;3050544;19;4720;-25
2024/03/28 01:40:40;;;;;;;;;;;21.00;40.80;;;;;;3047872;19;4704;-29
2024/03/28 01:41:40;;;;;;;;;;;21.00;40.80;;;;;;3027313;19;4792;-25
2024/03/28 01:42:41;;;;;;;;;;;21.00;40.80;;;;;;3051248;19;4698;-30
2024/03/28 01:43:42;;;;;;;;;;;21.00;40.80;;;;;;3050425;19;4686;-29
2024/03/28 01:44:42;;;;;;;;;;;21.00;40.80;;;;;;3026281;19;4648;-28
2024/03/28 01:45:43;;;;;;;;;;;21.00;40.80;;;;;;3050303;19;4707;-29
2024/03/28 01:46:44;;;;;;;;;;;21.00;40.80;;;;;;3027097;19;4839;-29
2024/03/28 01:47:44;;;;;;;;;;;21.00;40.90;;;;;;3049388;19;4815;-27
2024/03/28 01:48:45;;;;;;;;;;;20.90;40.80;;;;;;3049641;19;4673;-26
2024/03/28 01:49:46;;;;;;;;;;;21.00;40.80;;;;;;3028188;19;4681;-29
2024/03/28 01:50:46;;;;;;;;;;;21.00;40.80;;;;;;3047080;19;4655;-28
2024/03/28 01:51:47;;;;;;;;;;;20.90;40.80;;;;;;3046827;19;4678;-27
2024/03/28 01:52:48;;;;;;;;;;;21.00;40.80;;;;;;3029486;19;4596;-25
2024/03/28 01:53:48;;;;;;;;;;;21.00;40.80;;;;;;3049106;19;4753;-29
2024/03/28 01:54:49;;;;;;;;;;;20.90;40.70;;;;;;3027535;19;4726;-25
2024/03/28 01:55:50;;;;;;;;;;;21.00;40.80;;;;;;3050208;19;4951;-25
2024/03/28 01:56:50;;;;;;;;;;;20.90;40.70;;;;;;3049644;19;4706;-25
2024/03/28 01:57:51;;;;;;;;;;;20.90;40.70;;;;;;3026880;19;4679;-25
2024/03/28 01:58:51;;;;;;;;;;;20.90;40.70;;;;;;3050633;19;4639;-25
2024/03/28 01:59:52;;;;;;;;;;;20.90;40.70;;;;;;3037779;19;4663;-25
2024/03/28 02:00:53;;;;;;;;;;;20.90;40.80;;;;;;3044864;19;4793;-25
2024/03/28 02:01:53;;;;;;;;;;;20.90;40.80;;;;;;3047325;19;4702;-27
2024/03/28 02:02:55;;;;;;;;;;;20.90;40.80;;;;;;3027542;19;4697;-25
2024/03/28 02:03:56;;;;;;;;;;;20.90;40.70;;;;;;3048480;19;4660;-26
2024/03/28 02:04:56;;;;;;;;;;;20.90;40.70;;;;;;3048380;19;4689;-25
2024/03/28 02:05:57;;;;;;;;;;;20.70;40.60;;;;;;3029175;19;4688;-26
2024/03/28 02:06:57;;;;;;;;;;;20.90;40.70;;;;;;3048014;19;4676;-28
2024/03/28 02:07:58;;;;;;;;;;;20.90;40.70;;;;;;3027063;19;4828;-28
2024/03/28 02:08:59;;;;;;;;;;;20.90;40.70;;;;;;3051941;19;4650;-26
2024/03/28 02:09:59;;;;;;;;;;;20.90;40.80;;;;;;3051920;19;4662;-27
2024/03/28 02:11:00;;;;;;;;;;;20.80;40.70;;;;;;3029623;19;4691;-27
2024/03/28 02:12:00;;;;;;;;;;;20.80;40.70;;;;;;3050777;19;4862;-26
2024/03/28 02:13:01;;;;;;;;;;;20.80;41.40;;;;;;3054040;19;4878;-25
2024/03/28 02:14:02;;;;;;;;;;;20.80;40.70;;;;;;3030733;19;4655;-28
2024/03/28 02:15:03;;;;;;;;;;;20.80;40.80;;;;;;3052665;19;4722;-27
2024/03/28 02:16:04;;;;;;;;;;;20.80;40.80;;;;;;3030400;19;4636;-27
2024/03/28 02:17:05;;;;;;;;;;;20.80;40.80;;;;;;3051715;19;4613;-29
2024/03/28 02:18:06;;;;;;;;;;;20.80;40.70;;;;;;3052489;19;4659;-26
2024/03/28 02:19:07;;;;;;;;;;;20.80;40.70;;;;;;3032087;19;4142;-24
2024/03/28 02:20:07;;;;;;;;;;;20.80;40.70;;;;;;3052107;19;4687;-24
2024/03/28 02:21:08;;;;;;;;;;;20.80;40.70;;;;;;3053015;19;4717;-25
2024/03/28 02:22:09;;;;;;;;;;;20.80;40.70;;;;;;3031610;19;4709;-24
2024/03/28 02:23:10;;;;;;;;;;;20.80;40.70;;;;;;3052164;19;4726;-30
2024/03/28 02:24:10;;;;;;;;;;;20.80;40.80;;;;;;3031880;19;4592;-27
2024/03/28 02:25:12;;;;;;;;;;;20.80;40.70;;;;;;3051331;19;4743;-27
2024/03/28 02:26:12;;;;;;;;;;;20.80;40.60;;;;;;3053054;19;4707;-28
2024/03/28 02:27:13;;;;;;;;;;;20.80;40.70;;;;;;3031234;19;4301;-27
2024/03/28 02:28:14;;;;;;;;;;;20.80;40.70;;;;;;3052430;19;4707;-25
2024/03/28 02:29:14;;;;;;;;;;;20.80;40.70;;;;;;3029392;19;4815;-29
2024/03/28 02:30:15;;;;;;;;;;;20.70;40.60;;;;;;3051430;19;4681;-25
2024/03/28 02:31:15;;;;;;;;;;;20.80;40.60;;;;;;3051288;19;4860;-25
2024/03/28 02:32:16;;;;;;;;;;;20.80;40.70;;;;;;3029354;19;4651;-26
2024/03/28 02:33:17;;;;;;;;;;;20.70;40.60;;;;;;3052157;19;4816;-25
2024/03/28 02:34:17;;;;;;;;;;;20.70;40.60;;;;;;3052086;19;4656;-25
2024/03/28 02:35:18;;;;;;;;;;;20.70;40.60;;;;;;3029719;19;4564;-26
2024/03/28 02:36:19;;;;;;;;;;;20.70;40.60;;;;;;3052043;19;4721;-26
2024/03/28 02:37:19;;;;;;;;;;;20.70;40.70;;;;;;3031372;19;4675;-26
2024/03/28 02:38:20;;;;;;;;;;;20.70;40.70;;;;;;3051804;19;4686;-26
2024/03/28 02:39:20;;;;;;;;;;;20.70;40.70;;;;;;3053311;19;4813;-26
2024/03/28 02:40:21;;;;;;;;;;;20.70;40.80;;;;;;3030080;19;4596;-27
2024/03/28 02:41:22;;;;;;;;;;;20.70;40.80;;;;;;3053083;19;4727;-26
2024/03/28 02:42:22;;;;;;;;;;;20.70;40.70;;;;;;3051887;19;4726;-25
2024/03/28 02:43:23;;;;;;;;;;;20.00;40.20;;;;;;3031330;19;4803;-25
2024/03/28 02:44:24;;;;;;;;;;;20.70;40.60;;;;;;3051922;19;4679;-25
2024/03/28 02:45:25;;;;;;;;;;;20.70;40.60;;;;;;3031595;19;4697;-26
2024/03/28 02:46:26;;;;;;;;;;;20.70;40.60;;;;;;3051577;19;4695;-29
2024/03/28 02:47:27;;;;;;;;;;;20.70;40.60;;;;;;3052160;19;4695;-26
2024/03/28 02:48:29;;;;;;;;;;;20.70;40.60;;;;;;3030343;19;4608;-27
2024/03/28 02:49:30;;;;;;;;;;;20.70;40.50;;;;;;3052129;19;4724;-26
2024/03/28 02:50:31;;;;;;;;;;;20.70;40.70;;;;;;3050362;19;4708;-25
2024/03/28 02:51:33;;;;;;;;;;;20.70;40.60;;;;;;3031193;19;4720;-26
2024/03/28 02:52:35;;;;;;;;;;;20.70;40.60;;;;;;3051186;19;4907;-25
2024/03/28 02:53:36;;;;;;;;;;;20.70;40.70;;;;;;3029778;19;4700;-25
2024/03/28 02:54:37;;;;;;;;;;;20.60;40.60;;;;;;3053617;19;4688;-26
2024/03/28 02:55:37;;;;;;;;;;;20.60;40.70;;;;;;3051853;19;4724;-27
2024/03/28 02:56:38;;;;;;;;;;;20.70;40.70;;;;;;3030351;19;4601;-28
2024/03/28 02:57:38;;;;;;;;;;;20.70;40.70;;;;;;3051443;19;4688;-25
2024/03/28 02:58:39;;;;;;;;;;;20.60;40.70;;;;;;3030549;19;4680;-25
2024/03/28 02:59:40;;;;;;;;;;;19.90;40.30;;;;;;3052345;19;4751;-26
2024/03/28 03:00:40;;;;;;;;;;;20.60;40.70;;;;;;3052018;19;4661;-25
2024/03/28 03:01:41;;;;;;;;;;;20.60;40.70;;;;;;3029825;19;4694;-25
2024/03/28 03:02:41;;;;;;;;;;;20.60;40.70;;;;;;3053649;19;4668;-25
2024/03/28 03:03:42;;;;;;;;;;;20.60;40.60;;;;;;3050871;19;4687;-24
2024/03/28 03:04:43;;;;;;;;;;;20.60;40.60;;;;;;3031162;19;4599;-25
2024/03/28 03:05:44;;;;;;;;;;;20.60;40.60;;;;;;3052003;19;4692;-24
2024/03/28 03:06:44;;;;;;;;;;;20.60;40.60;;;;;;3031215;19;4721;-29
2024/03/28 03:07:45;;;;;;;;;;;20.60;40.50;;;;;;3052153;19;4812;-25
2024/03/28 03:08:45;;;;;;;;;;;20.60;40.60;;;;;;3051975;19;4870;-29
2024/03/28 03:09:46;;;;;;;;;;;20.50;40.70;;;;;;3029996;19;4695;-25
2024/03/28 03:10:47;;;;;;;;;;;20.50;40.60;;;;;;3052144;19;4680;-27
2024/03/28 03:11:47;;;;;;;;;;;20.60;40.70;;;;;;3051213;19;4672;-24
2024/03/28 03:12:48;;;;;;;;;;;20.60;40.60;;;;;;3029858;19;4547;-27
2024/03/28 03:13:49;;;;;;;;;;;20.50;40.60;;;;;;3052537;19;4731;-26
2024/03/28 03:14:49;;;;;;;;;;;20.60;40.60;;;;;;3031162;19;4665;-24
2024/03/28 03:15:54;;;;;;;;;;;20.60;40.60;;;;;;3051439;19;4691;-28
2024/03/28 03:16:54;;;;;;;;;;;20.60;40.70;;;;;;3052355;19;4649;-25
2024/03/28 03:17:56;;;;;;;;;;;20.50;40.60;;;;;;3029767;19;4844;-29
2024/03/28 03:18:57;;;;;;;;;;;20.60;40.70;;;;;;3053468;19;4726;-26
2024/03/28 03:19:59;;;;;;;;;;;20.50;40.60;;;;;;3027567;19;4661;-28
2024/03/28 03:21:00;;;;;;;;;;;20.50;40.60;;;;;;3053107;19;4835;-24
2024/03/28 03:22:01;;;;;;;;;;;20.60;40.60;;;;;;3052055;19;4683;-25
2024/03/28 03:23:04;;;;;;;;;;;20.90;40.80;;;;;;3031568;19;4848;-28
2024/03/28 03:24:05;;;;;;;;;;;20.50;40.60;;;;;;3051236;19;4667;-25
2024/03/28 03:25:11;;;;;;;;;;;20.50;40.50;;;;;;3051304;19;14634;-28
2024/03/28 03:26:14;;;;;;;;;;;20.50;40.60;;;;;;3028044;19;4717;-27
2024/03/28 03:27:20;;;;;;;;;;;20.60;40.60;;;;;;3053939;19;4707;-30
2024/03/28 03:34:57;;;;;;;;;;;20.50;40.50;;;;;;3051850;19;4881;-28
2024/03/28 03:35:57;;;;;;;;;;;20.50;40.70;;;;;;3031269;19;4611;-28
2024/03/28 03:36:58;;;;;;;;;;;20.50;40.60;;;;;;3052954;19;4849;-25
2024/03/28 03:37:59;;;;;;;;;;;20.40;40.60;;;;;;3052007;19;4712;-28
2024/03/28 03:38:59;;;;;;;;;;;20.50;40.60;;;;;;3031184;19;4709;-25
2024/03/28 03:40:00;;;;;;;;;;;20.50;40.60;;;;;;3051975;19;4667;-26
2024/03/28 03:41:01;;;;;;;;;;;20.40;40.60;;;;;;3052990;19;4968;-26
2024/03/28 03:42:02;;;;;;;;;;;20.50;40.60;;;;;;3030445;19;4644;-25
2024/03/28 03:43:02;;;;;;;;;;;20.50;40.60;;;;;;3052566;19;4701;-27
2024/03/28 03:44:03;;;;;;;;;;;20.50;40.60;;;;;;3031077;19;4759;-29
2024/03/28 03:45:05;;;;;;;;;;;20.50;40.60;;;;;;3051242;19;4805;-26
2024/03/28 03:46:06;;;;;;;;;;;20.60;40.60;;;;;;3052206;19;4681;-27
2024/03/28 03:47:07;;;;;;;;;;;20.60;40.60;;;;;;3031411;19;4179;-26
2024/03/28 03:48:07;;;;;;;;;;;20.60;40.60;;;;;;3051901;19;11693;-24
2024/03/28 03:49:08;;;;;;;;;;;20.60;40.50;;;;;;3051511;19;4780;-26
2024/03/28 03:50:09;;;;;;;;;;;20.70;40.50;;;;;;3030114;19;4835;-25
2024/03/28 03:51:09;;;;;;;;;;;20.80;40.40;;;;;;3050599;19;4822;-24
2024/03/28 03:52:10;;;;;;;;;;;20.80;40.20;;;;;;3030731;19;4602;-28
2024/03/28 03:53:11;;;;;;;;;;;20.90;40.20;;;;;;3050952;19;4712;-27
2024/03/28 03:54:11;;;;;;;;;;;20.90;40.10;;;;;;3050773;19;4934;-26
2024/03/28 03:55:12;;;;;;;;;;;20.90;39.90;;;;;;3028622;19;4782;-24
2024/03/28 03:56:13;;;;;;;;;;;20.90;39.90;;;;;;3052281;19;1320;-27
2024/03/28 03:57:13;;;;;;;;;;;20.90;39.90;;;;;;3030308;19;4658;-33
2024/03/28 03:58:14;;;;;;;;;;;20.90;39.80;;;;;;3052047;19;4891;-32
2024/03/28 03:59:14;;;;;;;;;;;20.90;39.70;;;;;;3052294;19;4663;-33
2024/03/28 04:00:15;;;;;;;;;;;20.90;39.70;;;;;;3029762;19;4612;-35
2024/03/28 04:01:17;;;;;;;;;;;21.00;39.80;;;;;;3050832;19;4739;-31
2024/03/28 04:02:18;;;;;;;;;;;21.00;39.80;;;;;;3051061;19;4860;-30
2024/03/28 04:03:18;;;;;;;;;;;21.00;39.70;;;;;;3030585;19;4713;-31
2024/03/28 04:04:19;;;;;;;;;;;21.00;39.60;;;;;;3052014;19;4692;-32
2024/03/28 04:05:20;;;;;;;;;;;21.00;40.10;;;;;;3029667;19;4709;-33
2024/03/28 04:06:20;;;;;;;;;;;21.10;39.50;;;;;;3051819;19;4673;-31
2024/03/28 04:07:21;;;;;;;;;;;21.10;39.40;;;;;;3051670;19;4708;-34
2024/03/28 04:08:22;;;;;;;;;;;21.10;39.30;;;;;;3030633;19;4708;-33
2024/03/28 04:09:22;;;;;;;;;;;21.20;39.30;;;;;;3050242;19;4722;-34
2024/03/28 04:10:23;;;;;;;;;;;21.20;39.20;;;;;;3052404;19;4778;-32
2024/03/28 04:11:24;;;;;;;;;;;21.10;39.10;;;;;;3028004;19;4663;-31
2024/03/28 04:12:24;;;;;;;;;;;21.10;39.10;;;;;;3051698;19;4966;-32
2024/03/28 04:13:25;;;;;;;;;;;21.20;39.20;;;;;;3029542;19;4739;-31
2024/03/28 04:14:26;;;;;;;;;;;21.10;39.10;;;;;;3051269;19;4794;-30
2024/03/28 04:15:26;;;;;;;;;;;21.20;39.10;;;;;;3051221;19;4740;-35
2024/03/28 04:16:27;;;;;;;;;;;21.20;39.80;;;;;;3030647;19;4690;-32
2024/03/28 04:17:28;;;;;;;;;;;21.20;39.10;;;;;;3052046;19;4687;-33
2024/03/28 04:18:28;;;;;;;;;;;21.20;39.00;;;;;;3050189;19;4728;-30
2024/03/28 04:19:29;;;;;;;;;;;21.20;38.90;;;;;;3030671;19;4683;-33
2024/03/28 04:20:29;;;;;;;;;;;21.30;38.90;;;;;;3051327;19;4747;-31
2024/03/28 04:21:30;;;;;;;;;;;21.30;38.90;;;;;;3030772;19;4668;-34
2024/03/28 04:22:31;;;;;;;;;;;21.30;38.80;;;;;;3050338;19;4711;-32
2024/03/28 04:23:31;;;;;;;;;;;21.30;38.70;;;;;;3051470;19;4693;-30
2024/03/28 04:24:32;;;;;;;;;;;21.30;38.60;;;;;;3030042;19;4555;-31
2024/03/28 04:25:33;;;;;;;;;;;21.30;38.60;;;;;;3051769;19;4766;-33
2024/03/28 04:26:34;;;;;;;;;;;21.30;38.60;;;;;;3030122;19;4887;-31
2024/03/28 04:27:34;;;;;;;;;;;21.30;38.50;;;;;;3050893;19;4750;-33
2024/03/28 04:28:35;;;;;;;;;;;21.30;38.60;;;;;;3049577;19;4852;-33
2024/03/28 04:29:38;;;;;;;;;;;21.30;38.50;;;;;;3028742;19;4700;-32
2024/03/28 04:30:39;;;;;;;;;;;21.30;38.50;;;;;;3049706;19;4699;-34
2024/03/28 04:31:40;;;;;;;;;;;21.30;38.50;;;;;;3048099;19;4768;-33
2024/03/28 04:32:41;;;;;;;;;;;21.30;38.60;;;;;;3030334;19;4497;-32
2024/03/28 04:33:42;;;;;;;;;;;21.20;38.50;;;;;;3049256;19;4727;-34
2024/03/28 04:34:42;;;;;;;;;;;21.30;38.60;;;;;;3029609;19;4730;-32
2024/03/28 04:35:43;;;;;;;;;;;21.30;38.50;;;;;;3051357;19;4730;-36
2024/03/28 04:36:44;;;;;;;;;;;21.20;38.50;;;;;;3049834;19;4698;-34
2024/03/28 04:37:44;;;;;;;;;;;21.20;38.60;;;;;;3028250;19;4698;-34
2024/03/28 04:38:45;;;;;;;;;;;21.20;38.50;;;;;;3051159;19;4756;-30
2024/03/28 04:39:46;;;;;;;;;;;21.20;38.50;;;;;;3051177;19;4901;-33
2024/03/28 04:40:46;;;;;;;;;;;21.30;38.60;;;;;;3029772;19;4664;-34
2024/03/28 04:41:47;;;;;;;;;;;21.30;38.50;;;;;;3049896;19;4679;-34
2024/03/28 04:42:50;;;;;;;;;;;21.20;38.40;;;;;;3030876;19;4769;-34
2024/03/28 04:43:51;;;;;;;;;;;21.30;38.50;;;;;;3050286;19;4660;-32
2024/03/28 04:44:52;;;;;;;;;;;21.20;38.40;;;;;;3050798;19;4729;-30
2024/03/28 04:45:52;;;;;;;;;;;21.20;39.10;;;;;;3028946;19;4678;-34
2024/03/28 04:46:53;;;;;;;;;;;21.20;38.40;;;;;;3051489;19;4798;-26
2024/03/28 04:47:54;;;;;;;;;;;21.20;38.40;;;;;;3030994;19;4869;-24
2024/03/28 04:48:54;;;;;;;;;;;21.30;38.50;;;;;;3050329;19;4730;-28
2024/03/28 04:49:55;;;;;;;;;;;21.20;38.40;;;;;;3051200;19;4633;-27
2024/03/28 04:50:56;;;;;;;;;;;21.20;38.40;;;;;;3029990;19;4909;-29
2024/03/28 04:51:57;;;;;;;;;;;21.30;38.30;;;;;;3051264;19;4673;-27
2024/03/28 04:52:57;;;;;;;;;;;21.20;38.20;;;;;;3047487;19;4787;-24
2024/03/28 04:53:59;;;;;;;;;;;21.30;38.20;;;;;;3028791;19;4685;-27
2024/03/28 04:54:59;;;;;;;;;;;21.30;38.20;;;;;;3048956;19;4724;-26
2024/03/28 04:56:00;;;;;;;;;;;21.30;38.30;;;;;;3028279;19;4708;-25
2024/03/28 04:57:00;;;;;;;;;;;21.40;38.20;;;;;;3051104;19;5131;-28
2024/03/28 04:58:01;;;;;;;;;;;21.30;38.10;;;;;;3049386;19;4744;-25
2024/03/28 04:59:02;;;;;;;;;;;21.40;38.10;;;;;;3028435;19;4658;-27
2024/03/28 05:00:06;;;;;;;;;;;21.40;37.80;;;;;;3050611;19;4707;-26
2024/03/28 05:01:07;;;;;;;;;;;21.40;37.80;;;;;;3051149;19;5058;-24
2024/03/28 05:02:07;;;;;;;;;;;21.50;37.70;;;;;;3030157;19;4693;-29
2024/03/28 05:03:08;;;;;;;;;;;21.60;37.60;;;;;;3050118;19;4769;-25
2024/03/28 05:04:08;;;;;;;;;;;21.50;37.50;;;;;;3028311;19;4773;-25
2024/03/28 05:05:09;;;;;;;;;;;21.60;38.20;;;;;;3049024;19;4857;-28
2024/03/28 05:06:10;;;;;;;;;;;21.70;37.40;;;;;;3050945;19;4717;-25
2024/03/28 05:07:10;;;;;;;;;;;21.60;37.40;;;;;;3029375;19;4609;-28
2024/03/28 05:08:11;;;;;;;;;;;21.60;37.40;;;;;;3051630;19;999;-25
2024/03/28 05:09:13;;;;;;;;;;;21.60;37.40;;;;;;3046046;19;4626;-27
2024/03/28 05:10:14;;;;;;;;;;;21.60;37.40;;;;;;3049918;19;4704;-28
2024/03/28 05:11:14;;;;;;;;;;;21.60;37.30;;;;;;3050863;19;4740;-24
2024/03/28 05:12:15;;;;;;;;;;;21.60;37.40;;;;;;3029500;19;4556;-25
2024/03/28 05:13:16;;;;;;;;;;;21.60;37.50;;;;;;3051513;19;4810;-24
2024/03/28 05:14:16;;;;;;;;;;;21.60;38.20;;;;;;3051357;19;4733;-25
2024/03/28 05:15:17;;;;;;;;;;;21.50;37.40;;;;;;3027761;19;4623;-28
2024/03/28 05:16:18;;;;;;;;;;;21.50;37.50;;;;;;3050703;19;4739;-26
2024/03/28 05:17:18;;;;;;;;;;;21.50;37.40;;;;;;3029898;19;4720;-35
2024/03/28 05:18:19;;;;;;;;;;;21.40;37.50;;;;;;3051367;19;4682;-32
2024/03/28 05:19:20;;;;;;;;;;;21.40;37.50;;;;;;3049258;19;5015;-30
2024/03/28 05:20:21;;;;;;;;;;;21.40;37.40;;;;;;3028743;19;4541;-33
2024/03/28 05:21:22;;;;;;;;;;;21.40;37.50;;;;;;3051206;19;4674;-33
2024/03/28 05:22:24;;;;;;;;;;;21.40;37.50;;;;;;3051393;19;4859;-33
2024/03/28 05:23:24;;;;;;;;;;;21.40;37.50;;;;;;3029618;19;4546;-34
2024/03/28 05:24:25;;;;;;;;;;;21.30;37.50;;;;;;3049589;19;4647;-33
2024/03/28 05:25:25;;;;;;;;;;;21.30;37.60;;;;;;3027171;19;4879;-30
2024/03/28 05:26:26;;;;;;;;;;;21.40;37.70;;;;;;3049868;19;4667;-33
2024/03/28 05:27:27;;;;;;;;;;;21.40;37.80;;;;;;3050534;19;4757;-32
2024/03/28 05:28:28;;;;;;;;;;;21.40;38.40;;;;;;3029660;19;4569;-34
2024/03/28 05:29:29;;;;;;;;;;;21.40;37.70;;;;;;3049228;19;4798;-32
2024/03/28 05:30:29;;;;;;;;;;;21.40;37.60;;;;;;3051200;19;4746;-35
2024/03/28 05:31:31;;;;;;;;;;;21.50;37.60;;;;;;3028680;19;4686;-30
2024/03/28 05:32:32;;;;;;;;;;;21.50;37.50;;;;;;3051162;19;4822;-30
2024/03/28 05:33:32;;;;;;;;;;;21.50;37.40;;;;;;3029419;19;4688;-33
2024/03/28 05:34:33;;;;;;;;;;;21.50;37.30;;;;;;3049321;19;4728;-31
2024/03/28 05:35:34;;;;;;;;;;;21.60;37.30;;;;;;3049615;19;4732;-33
2024/03/28 05:36:37;;;;;;;;;;;21.50;37.30;;;;;;3029626;19;4609;-33
2024/03/28 05:37:37;;;;;;;;;;;21.60;37.30;;;;;;3049804;19;4771;-32
2024/03/28 05:38:38;;;;;;;;;;;21.50;37.20;;;;;;3028976;19;4709;-30
2024/03/28 05:39:39;;;;;;;;;;;21.50;37.20;;;;;;3048924;19;4743;-33
2024/03/28 05:40:39;;;;;;;;;;;21.50;37.20;;;;;;3050758;19;4750;-33
2024/03/28 05:41:40;;;;;;;;;;;21.50;37.20;;;;;;3028076;19;4704;-32
2024/03/28 05:42:41;;;;;;;;;;;21.50;37.20;;;;;;3050256;19;5278;-32
2024/03/28 05:43:42;;;;;;;;;;;21.40;37.10;;;;;;3053067;19;4781;-34
2024/03/28 05:44:43;;;;;;;;;;;21.40;37.10;;;;;;3031866;19;4653;-30
2024/03/28 05:45:43;;;;;;;;;;;21.40;37.20;;;;;;3053641;19;4654;-33
2024/03/28 05:46:44;;;;;;;;;;;21.40;37.20;;;;;;3032346;19;4737;-31
2024/03/28 05:47:45;;;;;;;;;;;21.40;37.20;;;;;;3052898;19;4755;-30
2024/03/28 05:48:46;;;;;;;;;;;21.40;37.20;;;;;;3051068;19;4763;-32
2024/03/28 05:49:46;;;;;;;;;;;21.40;37.20;;;;;;3030864;19;4749;-34
2024/03/28 05:50:47;;;;;;;;;;;21.30;37.20;;;;;;3052224;19;4714;-31
2024/03/28 05:51:47;;;;;;;;;;;21.30;37.30;;;;;;3051878;19;4943;-34
2024/03/28 05:52:48;;;;;;;;;;;21.40;37.40;;;;;;3030078;19;4815;-31
2024/03/28 05:53:49;;;;;;;;;;;21.40;37.80;;;;;;3052310;19;4687;-30
2024/03/28 05:54:49;;;;;;;;;;;21.50;37.40;;;;;;3030315;19;4712;-31
2024/03/28 05:55:50;;;;;;;;;;;21.40;37.30;;;;;;3050728;19;4720;-33
2024/03/28 05:56:51;;;;;;;;;;;21.50;37.30;;;;;;3052386;19;4722;-32
2024/03/28 05:57:51;;;;;;;;;;;21.50;37.20;;;;;;3030291;19;4883;-33
2024/03/28 05:58:52;;;;;;;;;;;21.50;37.10;;;;;;3049971;19;4706;-31
2024/03/28 05:59:52;;;;;;;;;;;21.50;37.10;;;;;;3035106;19;4694;-32
2024/03/28 06:00:53;;;;;;;;;;;21.50;37.00;;;;;;3050352;19;4686;-31
2024/03/28 06:01:54;;;;;;;;;;;21.50;37.10;;;;;;3048885;19;4684;-31
2024/03/28 06:02:54;;;;;;;;;;;21.60;37.10;;;;;;3029062;19;4754;-33
2024/03/28 06:03:55;;;;;;;;;;;21.50;37.00;;;;;;3049613;19;4710;-32
2024/03/28 06:04:56;;;;;;;;;;;21.50;37.00;;;;;;3049869;19;4715;-31
2024/03/28 06:05:57;;;;;;;;;;;21.50;37.00;;;;;;3031633;19;4688;-31